sensor_id;sensor_type;location;lat;lon;timestamp;temperature;humidity
53314;DHT22;39202;51.468;7.146;2022-11-11T00:04:44;24.00;45.70
53314;DHT22;39202;51.468;7.146;2022-11-11T00:09:46;24.00;45.70
53314;DHT22;39202;51.468;7.146;2022-11-11T00:14:47;24.00;45.70
53314;DHT22;39202;51.468;7.146;2022-11-11T00:19:50;24.00;45.70
53314;DHT22;39202;51.468;7.146;2022-11-11T00:25:13;23.90;45.70
53314;DHT22;39202;51.468;7.146;2022-11-11T00:30:15;23.90;45.70
53314;DHT22;39202;51.468;7.146;2022-11-11T00:35:18;23.90;45.70
53314;DHT22;39202;51.468;7.146;2022-11-11T00:40:37;23.90;45.70
53314;DHT22;39202;51.468;7.146;2022-11-11T00:45:39;23.90;45.70
53314;DHT22;39202;51.468;7.146;2022-11-11T00:50:42;23.90;45.70
53314;DHT22;39202;51.468;7.146;2022-11-11T00:55:59;23.90;45.70
53314;DHT22;39202;51.468;7.146;2022-11-11T01:01:00;23.90;45.70
53314;DHT22;39202;51.468;7.146;2022-11-11T01:06:05;23.90;45.70
53314;DHT22;39202;51.468;7.146;2022-11-11T01:11:12;23.90;45.80
53314;DHT22;39202;51.468;7.146;2022-11-11T01:16:17;23.80;45.70
53314;DHT22;39202;51.468;7.146;2022-11-11T01:21:22;23.80;45.80
53314;DHT22;39202;51.468;7.146;2022-11-11T01:26:25;23.80;45.80
53314;DHT22;39202;51.468;7.146;2022-11-11T01:31:27;23.80;45.80
53314;DHT22;39202;51.468;7.146;2022-11-11T01:36:30;23.80;45.70
53314;DHT22;39202;51.468;7.146;2022-11-11T01:41:33;23.80;45.80
53314;DHT22;39202;51.468;7.146;2022-11-11T01:46:38;23.80;46.00
53314;DHT22;39202;51.468;7.146;2022-11-11T01:51:48;23.80;45.80
53314;DHT22;39202;51.468;7.146;2022-11-11T01:56:54;23.80;45.90
53314;DHT22;39202;51.468;7.146;2022-11-11T02:01:57;23.80;45.90
53314;DHT22;39202;51.468;7.146;2022-11-11T02:07:03;23.70;45.80
53314;DHT22;39202;51.468;7.146;2022-11-11T02:12:08;23.70;45.80
53314;DHT22;39202;51.468;7.146;2022-11-11T02:17:30;23.70;45.80
53314;DHT22;39202;51.468;7.146;2022-11-11T02:22:40;23.70;45.80
53314;DHT22;39202;51.468;7.146;2022-11-11T02:27:47;23.70;45.80
53314;DHT22;39202;51.468;7.146;2022-11-11T02:32:52;23.70;45.80
53314;DHT22;39202;51.468;7.146;2022-11-11T02:37:54;23.70;45.90
53314;DHT22;39202;51.468;7.146;2022-11-11T02:42:57;23.70;45.80
53314;DHT22;39202;51.468;7.146;2022-11-11T02:47:58;23.70;45.90
53314;DHT22;39202;51.468;7.146;2022-11-11T02:53:00;23.60;45.80
53314;DHT22;39202;51.468;7.146;2022-11-11T02:58:03;23.60;45.90
53314;DHT22;39202;51.468;7.146;2022-11-11T03:03:05;23.60;45.80
53314;DHT22;39202;51.468;7.146;2022-11-11T03:08:06;23.60;45.80
53314;DHT22;39202;51.468;7.146;2022-11-11T03:13:09;23.60;45.80
53314;DHT22;39202;51.468;7.146;2022-11-11T03:18:11;23.60;45.90
53314;DHT22;39202;51.468;7.146;2022-11-11T03:23:14;23.60;45.90
53314;DHT22;39202;51.468;7.146;2022-11-11T03:28:19;23.60;45.90
53314;DHT22;39202;51.468;7.146;2022-11-11T03:33:20;23.60;45.90
53314;DHT22;39202;51.468;7.146;2022-11-11T03:38:22;23.50;45.80
53314;DHT22;39202;51.468;7.146;2022-11-11T03:43:27;23.50;45.80
53314;DHT22;39202;51.468;7.146;2022-11-11T03:48:31;23.50;45.90
53314;DHT22;39202;51.468;7.146;2022-11-11T03:53:33;23.50;45.90
53314;DHT22;39202;51.468;7.146;2022-11-11T03:58:36;23.50;45.90
53314;DHT22;39202;51.468;7.146;2022-11-11T04:03:38;23.50;45.90
53314;DHT22;39202;51.468;7.146;2022-11-11T04:08:57;23.50;45.90
53314;DHT22;39202;51.468;7.146;2022-11-11T04:14:17;23.50;45.90
53314;DHT22;39202;51.468;7.146;2022-11-11T04:19:48;23.50;45.90
53314;DHT22;39202;51.468;7.146;2022-11-11T04:25:07;23.50;45.90
53314;DHT22;39202;51.468;7.146;2022-11-11T04:30:42;23.50;45.90
53314;DHT22;39202;51.468;7.146;2022-11-11T04:35:48;23.50;46.00
53314;DHT22;39202;51.468;7.146;2022-11-11T04:40:50;23.40;45.90
53314;DHT22;39202;51.468;7.146;2022-11-11T04:46:05;23.40;45.90
53314;DHT22;39202;51.468;7.146;2022-11-11T04:51:07;23.40;45.90
53314;DHT22;39202;51.468;7.146;2022-11-11T04:56:09;23.40;45.90
53314;DHT22;39202;51.468;7.146;2022-11-11T05:01:30;23.40;45.90
53314;DHT22;39202;51.468;7.146;2022-11-11T05:06:49;23.40;46.00
53314;DHT22;39202;51.468;7.146;2022-11-11T05:12:08;23.40;45.90
53314;DHT22;39202;51.468;7.146;2022-11-11T05:17:11;23.40;45.90
53314;DHT22;39202;51.468;7.146;2022-11-11T05:22:33;23.40;45.90
53314;DHT22;39202;51.468;7.146;2022-11-11T05:27:36;23.40;45.90
53314;DHT22;39202;51.468;7.146;2022-11-11T05:32:39;23.40;45.90
53314;DHT22;39202;51.468;7.146;2022-11-11T05:37:42;23.40;45.90
53314;DHT22;39202;51.468;7.146;2022-11-11T05:42:43;23.30;46.00
53314;DHT22;39202;51.468;7.146;2022-11-11T05:47:47;23.30;45.90
53314;DHT22;39202;51.468;7.146;2022-11-11T05:52:49;23.30;46.00
53314;DHT22;39202;51.468;7.146;2022-11-11T05:57:51;23.30;54.10
53314;DHT22;39202;51.468;7.146;2022-11-11T06:02:54;23.30;48.20
53314;DHT22;39202;51.468;7.146;2022-11-11T06:08:02;23.30;56.90
53314;DHT22;39202;51.468;7.146;2022-11-11T06:18:10;23.30;45.50
53314;DHT22;39202;51.468;7.146;2022-11-11T06:23:12;23.30;46.00
53314;DHT22;39202;51.468;7.146;2022-11-11T06:28:14;23.30;46.00
53314;DHT22;39202;51.468;7.146;2022-11-11T06:33:18;23.20;46.00
53314;DHT22;39202;51.468;7.146;2022-11-11T06:38:20;23.30;46.00
53314;DHT22;39202;51.468;7.146;2022-11-11T06:43:22;23.20;46.00
53314;DHT22;39202;51.468;7.146;2022-11-11T06:48:27;23.20;46.00
53314;DHT22;39202;51.468;7.146;2022-11-11T06:53:29;23.20;46.10
53314;DHT22;39202;51.468;7.146;2022-11-11T06:58:31;23.20;46.00
53314;DHT22;39202;51.468;7.146;2022-11-11T07:03:35;23.20;46.00
53314;DHT22;39202;51.468;7.146;2022-11-11T07:08:36;23.20;46.10
53314;DHT22;39202;51.468;7.146;2022-11-11T07:13:38;23.20;46.10
53314;DHT22;39202;51.468;7.146;2022-11-11T07:18:41;23.20;46.30
53314;DHT22;39202;51.468;7.146;2022-11-11T07:23:43;23.20;46.60
53314;DHT22;39202;51.468;7.146;2022-11-11T07:28:45;23.30;46.80
53314;DHT22;39202;51.468;7.146;2022-11-11T07:33:49;23.40;47.00
53314;DHT22;39202;51.468;7.146;2022-11-11T07:38:50;23.50;47.10
53314;DHT22;39202;51.468;7.146;2022-11-11T07:43:52;23.60;47.10
53314;DHT22;39202;51.468;7.146;2022-11-11T07:48:55;23.80;47.20
53314;DHT22;39202;51.468;7.146;2022-11-11T07:53:57;23.90;47.30
53314;DHT22;39202;51.468;7.146;2022-11-11T07:58:59;24.00;47.20
53314;DHT22;39202;51.468;7.146;2022-11-11T08:04:02;24.10;47.20
53314;DHT22;39202;51.468;7.146;2022-11-11T08:09:04;24.30;47.10
53314;DHT22;39202;51.468;7.146;2022-11-11T08:14:05;24.40;47.00
53314;DHT22;39202;51.468;7.146;2022-11-11T08:19:09;24.50;46.90
53314;DHT22;39202;51.468;7.146;2022-11-11T08:24:10;24.60;46.90
53314;DHT22;39202;51.468;7.146;2022-11-11T08:29:12;24.70;46.80
53314;DHT22;39202;51.468;7.146;2022-11-11T08:34:15;24.80;46.70
53314;DHT22;39202;51.468;7.146;2022-11-11T08:39:17;24.80;46.50
53314;DHT22;39202;51.468;7.146;2022-11-11T08:44:18;24.80;46.30
53314;DHT22;39202;51.468;7.146;2022-11-11T08:49:22;24.80;46.20
53314;DHT22;39202;51.468;7.146;2022-11-11T08:54:23;24.90;46.30
53314;DHT22;39202;51.468;7.146;2022-11-11T08:59:25;24.90;46.20
53314;DHT22;39202;51.468;7.146;2022-11-11T09:04:28;24.90;46.20
53314;DHT22;39202;51.468;7.146;2022-11-11T09:09:30;25.00;46.30
53314;DHT22;39202;51.468;7.146;2022-11-11T09:14:32;25.00;46.20
53314;DHT22;39202;51.468;7.146;2022-11-11T09:19:35;25.00;46.20
53314;DHT22;39202;51.468;7.146;2022-11-11T09:24:37;25.10;46.20
53314;DHT22;39202;51.468;7.146;2022-11-11T09:29:38;25.10;46.30
53314;DHT22;39202;51.468;7.146;2022-11-11T09:34:41;25.10;46.20
53314;DHT22;39202;51.468;7.146;2022-11-11T09:39:43;25.20;78.90
53314;DHT22;39202;51.468;7.146;2022-11-11T09:45:13;25.20;46.20
53314;DHT22;39202;51.468;7.146;2022-11-11T09:50:21;25.20;46.30
53314;DHT22;39202;51.468;7.146;2022-11-11T09:55:26;25.20;46.30
53314;DHT22;39202;51.468;7.146;2022-11-11T10:00:34;25.20;46.30
53314;DHT22;39202;51.468;7.146;2022-11-11T10:05:41;25.30;46.30
53314;DHT22;39202;51.468;7.146;2022-11-11T10:10:46;25.30;46.20
53314;DHT22;39202;51.468;7.146;2022-11-11T10:15:55;25.40;46.30
53314;DHT22;39202;51.468;7.146;2022-11-11T10:21:00;25.40;46.40
53314;DHT22;39202;51.468;7.146;2022-11-11T10:26:11;25.50;46.40
53314;DHT22;39202;51.468;7.146;2022-11-11T10:31:18;25.50;46.40
53314;DHT22;39202;51.468;7.146;2022-11-11T10:36:23;25.50;46.40
53314;DHT22;39202;51.468;7.146;2022-11-11T10:41:32;25.60;46.40
53314;DHT22;39202;51.468;7.146;2022-11-11T10:46:40;25.60;46.40
53314;DHT22;39202;51.468;7.146;2022-11-11T10:51:50;25.60;46.40
53314;DHT22;39202;51.468;7.146;2022-11-11T10:56:58;25.70;46.30
53314;DHT22;39202;51.468;7.146;2022-11-11T11:02:08;25.70;47.00
53314;DHT22;39202;51.468;7.146;2022-11-11T11:07:15;25.70;46.20
53314;DHT22;39202;51.468;7.146;2022-11-11T11:12:21;25.70;46.10
53314;DHT22;39202;51.468;7.146;2022-11-11T11:17:29;25.70;46.00
53314;DHT22;39202;51.468;7.146;2022-11-11T11:22:47;25.80;46.10
53314;DHT22;39202;51.468;7.146;2022-11-11T11:27:51;25.80;46.10
53314;DHT22;39202;51.468;7.146;2022-11-11T11:32:57;25.80;46.10
53314;DHT22;39202;51.468;7.146;2022-11-11T11:38:01;25.80;46.20
53314;DHT22;39202;51.468;7.146;2022-11-11T11:43:23;25.80;46.20
53314;DHT22;39202;51.468;7.146;2022-11-11T11:48:34;25.90;46.30
53314;DHT22;39202;51.468;7.146;2022-11-11T11:53:50;25.90;46.20
53314;DHT22;39202;51.468;7.146;2022-11-11T11:59:00;25.90;46.20
53314;DHT22;39202;51.468;7.146;2022-11-11T12:04:37;26.00;46.20
53314;DHT22;39202;51.468;7.146;2022-11-11T12:09:53;26.00;46.20
53314;DHT22;39202;51.468;7.146;2022-11-11T12:15:03;26.00;46.20
53314;DHT22;39202;51.468;7.146;2022-11-11T12:20:15;26.00;46.20
53314;DHT22;39202;51.468;7.146;2022-11-11T12:25:48;26.00;46.20
53314;DHT22;39202;51.468;7.146;2022-11-11T12:31:01;26.00;46.20
53314;DHT22;39202;51.468;7.146;2022-11-11T12:36:10;26.00;46.20
53314;DHT22;39202;51.468;7.146;2022-11-11T12:41:23;26.00;46.10
53314;DHT22;39202;51.468;7.146;2022-11-11T12:46:37;26.00;46.00
53314;DHT22;39202;51.468;7.146;2022-11-11T12:51:51;26.00;46.00
53314;DHT22;39202;51.468;7.146;2022-11-11T12:57:03;26.00;46.00
53314;DHT22;39202;51.468;7.146;2022-11-11T13:02:25;26.00;46.00
53314;DHT22;39202;51.468;7.146;2022-11-11T13:13:33;25.90;45.80
53314;DHT22;39202;51.468;7.146;2022-11-11T13:18:46;25.90;45.80
53314;DHT22;39202;51.468;7.146;2022-11-11T13:23:49;25.90;45.80
53314;DHT22;39202;51.468;7.146;2022-11-11T13:29:00;25.90;45.90
53314;DHT22;39202;51.468;7.146;2022-11-11T13:34:10;25.90;46.00
53314;DHT22;39202;51.468;7.146;2022-11-11T13:39:23;25.90;46.00
53314;DHT22;39202;51.468;7.146;2022-11-11T13:44:30;25.90;46.00
53314;DHT22;39202;51.468;7.146;2022-11-11T13:49:36;25.90;46.10
53314;DHT22;39202;51.468;7.146;2022-11-11T13:54:40;25.90;46.10
53314;DHT22;39202;51.468;7.146;2022-11-11T13:59:56;25.90;46.10
53314;DHT22;39202;51.468;7.146;2022-11-11T14:05:15;25.90;46.10
53314;DHT22;39202;51.468;7.146;2022-11-11T14:10:54;25.90;46.10
53314;DHT22;39202;51.468;7.146;2022-11-11T14:15:58;25.90;46.10
53314;DHT22;39202;51.468;7.146;2022-11-11T14:21:00;25.90;46.10
53314;DHT22;39202;51.468;7.146;2022-11-11T14:26:29;25.90;46.10
53314;DHT22;39202;51.468;7.146;2022-11-11T14:31:48;25.90;46.20
53314;DHT22;39202;51.468;7.146;2022-11-11T14:36:58;25.80;46.20
53314;DHT22;39202;51.468;7.146;2022-11-11T14:42:03;25.80;46.20
53314;DHT22;39202;51.468;7.146;2022-11-11T14:47:29;25.80;46.20
53314;DHT22;39202;51.468;7.146;2022-11-11T14:52:34;25.80;46.20
53314;DHT22;39202;51.468;7.146;2022-11-11T14:57:39;25.80;46.10
53314;DHT22;39202;51.468;7.146;2022-11-11T15:02:48;25.80;46.10
53314;DHT22;39202;51.468;7.146;2022-11-11T15:08:03;25.80;46.00
53314;DHT22;39202;51.468;7.146;2022-11-11T15:13:36;25.70;46.00
53314;DHT22;39202;51.468;7.146;2022-11-11T15:19:07;25.70;46.00
53314;DHT22;39202;51.468;7.146;2022-11-11T15:24:23;25.70;45.90
53314;DHT22;39202;51.468;7.146;2022-11-11T15:29:50;25.60;45.90
53314;DHT22;39202;51.468;7.146;2022-11-11T15:35:09;25.60;45.90
53314;DHT22;39202;51.468;7.146;2022-11-11T15:40:18;25.60;46.00
53314;DHT22;39202;51.468;7.146;2022-11-11T15:45:23;25.50;45.90
53314;DHT22;39202;51.468;7.146;2022-11-11T15:50:32;25.50;45.90
53314;DHT22;39202;51.468;7.146;2022-11-11T15:55:36;25.50;45.90
53314;DHT22;39202;51.468;7.146;2022-11-11T16:00:39;25.40;45.80
53314;DHT22;39202;51.468;7.146;2022-11-11T16:05:42;25.40;45.80
53314;DHT22;39202;51.468;7.146;2022-11-11T16:10:46;25.40;45.90
53314;DHT22;39202;51.468;7.146;2022-11-11T16:15:52;25.30;45.90
53314;DHT22;39202;51.468;7.146;2022-11-11T16:21:00;25.30;45.90
53314;DHT22;39202;51.468;7.146;2022-11-11T16:26:04;25.30;45.90
53314;DHT22;39202;51.468;7.146;2022-11-11T16:31:29;25.20;45.80
53314;DHT22;39202;51.468;7.146;2022-11-11T16:36:57;25.20;45.80
53314;DHT22;39202;51.468;7.146;2022-11-11T16:42:00;25.10;45.80
53314;DHT22;39202;51.468;7.146;2022-11-11T16:47:04;25.10;45.80
53314;DHT22;39202;51.468;7.146;2022-11-11T16:52:10;25.10;45.90
53314;DHT22;39202;51.468;7.146;2022-11-11T16:57:15;25.10;45.90
53314;DHT22;39202;51.468;7.146;2022-11-11T17:02:18;25.00;45.80
53314;DHT22;39202;51.468;7.146;2022-11-11T17:07:29;25.00;45.80
53314;DHT22;39202;51.468;7.146;2022-11-11T17:12:33;25.00;45.80
53314;DHT22;39202;51.468;7.146;2022-11-11T17:17:36;25.00;45.90
53314;DHT22;39202;51.468;7.146;2022-11-11T17:22:47;24.90;45.80
53314;DHT22;39202;51.468;7.146;2022-11-11T17:27:49;24.90;45.80
53314;DHT22;39202;51.468;7.146;2022-11-11T17:32:50;24.90;45.90
53314;DHT22;39202;51.468;7.146;2022-11-11T17:37:54;24.80;45.80
53314;DHT22;39202;51.468;7.146;2022-11-11T17:42:55;24.80;45.80
53314;DHT22;39202;51.468;7.146;2022-11-11T17:47:57;24.80;45.90
53314;DHT22;39202;51.468;7.146;2022-11-11T17:53:00;24.80;45.90
53314;DHT22;39202;51.468;7.146;2022-11-11T17:58:02;24.80;45.90
53314;DHT22;39202;51.468;7.146;2022-11-11T18:03:04;24.70;45.90
53314;DHT22;39202;51.468;7.146;2022-11-11T18:08:07;24.70;45.90
53314;DHT22;39202;51.468;7.146;2022-11-11T18:13:09;24.70;45.90
53314;DHT22;39202;51.468;7.146;2022-11-11T18:18:10;24.60;45.80
53314;DHT22;39202;51.468;7.146;2022-11-11T18:23:13;24.60;45.90
53314;DHT22;39202;51.468;7.146;2022-11-11T18:28:15;24.60;45.90
53314;DHT22;39202;51.468;7.146;2022-11-11T18:33:17;24.60;45.90
53314;DHT22;39202;51.468;7.146;2022-11-11T18:38:20;24.60;45.90
53314;DHT22;39202;51.468;7.146;2022-11-11T18:43:22;24.60;45.90
53314;DHT22;39202;51.468;7.146;2022-11-11T18:48:24;24.50;45.90
53314;DHT22;39202;51.468;7.146;2022-11-11T18:53:29;24.60;45.80
53314;DHT22;39202;51.468;7.146;2022-11-11T18:58:32;24.40;45.80
53314;DHT22;39202;51.468;7.146;2022-11-11T19:03:34;24.50;45.90
53314;DHT22;39202;51.468;7.146;2022-11-11T19:08:38;24.50;46.00
53314;DHT22;39202;51.468;7.146;2022-11-11T19:13:39;24.50;46.00
53314;DHT22;39202;51.468;7.146;2022-11-11T19:18:41;24.40;46.10
53314;DHT22;39202;51.468;7.146;2022-11-11T19:23:45;24.50;46.10
53314;DHT22;39202;51.468;7.146;2022-11-11T19:28:47;24.40;46.20
53314;DHT22;39202;51.468;7.146;2022-11-11T19:33:50;24.40;46.20
53314;DHT22;39202;51.468;7.146;2022-11-11T19:38:55;24.50;46.20
53314;DHT22;39202;51.468;7.146;2022-11-11T19:43:57;24.50;46.20
53314;DHT22;39202;51.468;7.146;2022-11-11T19:48:59;24.50;46.20
53314;DHT22;39202;51.468;7.146;2022-11-11T19:54:02;24.50;46.20
53314;DHT22;39202;51.468;7.146;2022-11-11T19:59:04;24.50;46.20
53314;DHT22;39202;51.468;7.146;2022-11-11T20:04:05;24.40;46.10
53314;DHT22;39202;51.468;7.146;2022-11-11T20:09:10;24.40;46.10
53314;DHT22;39202;51.468;7.146;2022-11-11T20:14:12;24.40;46.10
53314;DHT22;39202;51.468;7.146;2022-11-11T20:19:14;24.40;46.10
53314;DHT22;39202;51.468;7.146;2022-11-11T20:24:17;24.40;46.10
53314;DHT22;39202;51.468;7.146;2022-11-11T20:29:19;24.30;46.00
53314;DHT22;39202;51.468;7.146;2022-11-11T20:34:20;24.30;46.00
53314;DHT22;39202;51.468;7.146;2022-11-11T20:39:23;24.30;46.10
53314;DHT22;39202;51.468;7.146;2022-11-11T20:44:25;24.30;46.10
53314;DHT22;39202;51.468;7.146;2022-11-11T20:49:27;24.30;46.10
53314;DHT22;39202;51.468;7.146;2022-11-11T20:54:30;24.20;46.70
53314;DHT22;39202;51.468;7.146;2022-11-11T20:59:31;24.20;46.20
53314;DHT22;39202;51.468;7.146;2022-11-11T21:04:33;24.20;46.10
53314;DHT22;39202;51.468;7.146;2022-11-11T21:09:36;24.20;46.10
53314;DHT22;39202;51.468;7.146;2022-11-11T21:14:38;24.20;46.10
53314;DHT22;39202;51.468;7.146;2022-11-11T21:19:39;24.10;46.10
53314;DHT22;39202;51.468;7.146;2022-11-11T21:24:42;24.10;46.50
53314;DHT22;39202;51.468;7.146;2022-11-11T21:29:44;24.20;85.10
53314;DHT22;39202;51.468;7.146;2022-11-11T21:34:46;24.10;46.10
53314;DHT22;39202;51.468;7.146;2022-11-11T21:39:49;24.10;46.10
53314;DHT22;39202;51.468;7.146;2022-11-11T21:44:50;24.10;46.10
53314;DHT22;39202;51.468;7.146;2022-11-11T21:49:52;24.10;46.10
53314;DHT22;39202;51.468;7.146;2022-11-11T21:54:55;24.00;46.10
53314;DHT22;39202;51.468;7.146;2022-11-11T21:59:57;24.00;46.10
53314;DHT22;39202;51.468;7.146;2022-11-11T22:04:58;24.00;46.10
53314;DHT22;39202;51.468;7.146;2022-11-11T22:10:03;23.90;46.10
53314;DHT22;39202;51.468;7.146;2022-11-11T22:15:05;24.90;46.60
53314;DHT22;39202;51.468;7.146;2022-11-11T22:20:08;23.90;46.10
53314;DHT22;39202;51.468;7.146;2022-11-11T22:25:11;23.90;46.00
53314;DHT22;39202;51.468;7.146;2022-11-11T22:30:13;23.90;46.10
53314;DHT22;39202;51.468;7.146;2022-11-11T22:35:15;23.90;46.10
53314;DHT22;39202;51.468;7.146;2022-11-11T22:40:18;23.90;46.10
53314;DHT22;39202;51.468;7.146;2022-11-11T22:45:19;23.80;46.10
53314;DHT22;39202;51.468;7.146;2022-11-11T22:50:21;23.80;46.10
53314;DHT22;39202;51.468;7.146;2022-11-11T22:55:24;23.80;46.10
53314;DHT22;39202;51.468;7.146;2022-11-11T23:00:26;23.80;46.00
53314;DHT22;39202;51.468;7.146;2022-11-11T23:05:28;23.80;46.00
53314;DHT22;39202;51.468;7.146;2022-11-11T23:10:31;23.80;46.00
53314;DHT22;39202;51.468;7.146;2022-11-11T23:15:32;23.80;46.10
53314;DHT22;39202;51.468;7.146;2022-11-11T23:20:34;23.80;46.10
53314;DHT22;39202;51.468;7.146;2022-11-11T23:25:37;23.70;46.00
53314;DHT22;39202;51.468;7.146;2022-11-11T23:30:39;23.70;46.10
53314;DHT22;39202;51.468;7.146;2022-11-11T23:35:40;23.70;46.10
53314;DHT22;39202;51.468;7.146;2022-11-11T23:40:44;23.70;46.10
53314;DHT22;39202;51.468;7.146;2022-11-11T23:45:46;23.70;46.10
53314;DHT22;39202;51.468;7.146;2022-11-11T23:50:48;23.70;46.10
53314;DHT22;39202;51.468;7.146;2022-11-11T23:55:51;23.70;46.10
